Kezdőlap
METAR-TAF:

METAR-TAF

Repülőterek :

Portage Glacier, Alaszka, Amerikai Egyesült Államok

földrajzi szélesség: 60-47N, földrajzi hosszúság: 148-50W, magasság: 29 m

Jelenlegi meteorológiai megfigyelések

A jelentés 18 perccel ezelõtt készült, 19:08 UTC
Délkeleti szél 9 kt széllökések: 17 kt, keleti és déli között változik
Hőmérséklet 5°C
Páratartalom 87%
Légköri nyomás 1007 hPa
Látótávolság: 6.4 km
Borult 3000 lábon
enyhe esõ, Párásság

METAR: PATO 291908Z AUTO 13009G17KT 090V180 4SM -RA BR OVC030 05/03 A2974 RMK AO2 P0001 T00500033 TSNO

Idő: 11:26 (19:26 UTC)


TAF: hiányzik

Meteorológiai megfigyelések és előrejelzések több, mint 4000 repülőtéren (METAR és TAF jelentéseket).

A térképen piros és sárga pontok jelzik az elérhető meteorológiai állomásokat.

Mozgassa az egeret a pont fölött, hogy megjelenjen az állomás neve.

Azután kattintson az időjárási megfigyelések és előrejelzések megtekintéséhez.

A térkép megváltoztatása: kattintson a fekete keresztel jelölt zöld gombra ráközelítéshez, a vonallal jelölt zöld gombra távolításhoz, vagy a zöld nyilakra a szomszédos térképek eléréséhez.


METAR-TAF: